Tiempo atmosférico en la estación meteorológica de Osuna, Sevilla (255 m.)



Fecha
DESCASC
Temp. máxima en grados centígrados (hora)
DESCASC
Temp. mínima en grados centígrados (hora)
DESCASC
Temp. media en grados centígrados
DESCASC
Racha de viento máxima en m/sg (hora)
DESCASC
Velocidad máxima media en intervalos de 10 minutos(hora)
DESCASC
Precipitaciones diarias en mm
DESCASC
Precipitaciones de 00:00 a 06:00 en mm
DESCASC
Precipitaciones de 06:00 a 12:00 en mm
DESCASC
Precipitaciones de 12:00 a 18:00 en mm
DESCASC
Precipitaciones de 18:00 a 24:00 en mm
DESCASC
10-07-2020 37.2 (18:20) 19.5 (08:00) 28.4 7.5 (21:00) 5 (21:00) 0 0 0 0 0
09-07-2020 33.4 (17:40) 18.3 (07:10) 25.9 7.78 (17:10) 5.28 (21:00) 0 0 0 0 0
08-07-2020 38.6 (15:30) 26.6 (23:59) 32.6 12.78 (17:40) 8.61 (19:10) 0 0 0 0 0
07-07-2020 41.6 (17:30) 28 (06:50) 34.8 10.28 (17:10) 5.56 (16:10) 0 0 0 0 0
06-07-2020 40.7 (18:40) 24.2 (00:00) 32.5 11.39 (21:20) 8.33 (21:30) 0 0 0 0 0
05-07-2020 36.3 (18:50) 23.5 (05:40) 29.9 13.61 (15:10) 7.78 (15:10) 0 0 0 0 0
04-07-2020 35.9 (17:50) 21.2 (05:30) 28.6 11.11 (19:50) 5.83 (22:20) 0 0 0 0 0
03-07-2020 35 (18:10) 21.8 (07:40) 28.4 8.61 (17:30) 5.83 (17:30) 0 0 0 0 0
02-07-2020 35.2 (18:00) 21.8 (00:00) 28.5 12.5 (17:30) 7.22 (19:30) 0 0 0 0 0
01-07-2020 35.7 (18:10) 19.8 (00:00) 27.8 13.06 (17:50) 6.11 (20:10) 0 0 0 0 0
30-06-2020 37.6 (17:30) 24.1 (00:00) 30.8 10.56 (18:00) 7.78 (19:00) 0 0 0 0 0
29-06-2020 38.7 (17:10) 24.4 (00:00) 31.6 6.94 (15:20) 3.89 (20:20) 0 0 0 0 0
28-06-2020 37.4 (18:20) 22.2 (00:00) 29.8 7.78 (14:20) 4.72 (21:10) 0 0 0 0 0
27-06-2020 33.7 (19:00) 19 (00:00) 26.4 8.89 (13:50) 5.56 (22:10) 0 0 0 0 0
26-06-2020 31 (17:30) 18.1 (00:00) 24.6 11.67 (19:50) 6.39 (19:50) 0 0 0 0 0
25-06-2020 33 (17:10) 21.6 (00:00) 27.3 10.56 (20:20) 7.5 (20:20) 0 0 0 0 0
24-06-2020 36.1 (16:30) 23.1 (00:00) 29.6 11.39 (17:50) 6.11 (17:00) 0 0 0 0 0
23-06-2020 36 (17:20) 26 (00:00) 31 13.33 (00:10) 6.67 (00:20) 0 0 0 0 0
22-06-2020 35.3 (17:30) 25 (00:00) 30.1 16.94 (16:50) 8.89 (15:20) 0 0 0 0 0
21-06-2020 37.1 (19:20) 22.2 (00:00) 29.6 5.83 (17:40) 3.33 (17:40) 0 0 0 0 0
20-06-2020 34.8 (18:40) 19.6 (00:00) 27.2 8.33 (17:50) 5.28 (18:50) 0 0 0 0 0
19-06-2020 30.4 (17:50) 17.6 (00:00) 24 8.89 (19:50) 5.83 (20:00) 0 0 0 0 0
18-06-2020 30.4 (16:30) 18 (05:30) 24.2 12.22 (17:00) 8.06 (17:00) 0 0 0 0 0
17-06-2020 29.7 (18:50) 18.1 (00:00) 23.9 10.83 (17:40) 6.39 (15:20) 0 0 0 0 0
16-06-2020 28.9 (16:30) 18.1 (00:00) 23.5 14.72 (18:50) 9.17 (18:20) 0 0 0 0 0
15-06-2020 29 (17:40) 15.8 (00:00) 22.4 11.94 (19:50) 6.39 (20:00) 0 0 0 0 0
14-06-2020 27.6 (17:00) 15.8 (00:00) 21.7 11.67 (18:30) 7.22 (18:10) 0 0 0 0 0
13-06-2020 25.9 (17:40) 14 (00:00) 19.9 10.28 (00:10) 6.67 (19:00) 0 0 0 0 0
12-06-2020 22.8 (18:20) 15 (00:00) 18.9 13.61 (01:50) 8.61 (20:40) 1 1 0 0 0

Gráficas

Temp. máximas Temp. mínimas Temp. medias Precipitaciones Rachas de viento máximas Velocidades máximas media en intervalos de 10 minutos

Datos horarios

Fecha y hora oficial Temperatura (ºC) Velocidad del viento (km/h) Dirección del viento Racha (km/h) Dirección de racha Precipitación (mm) Presión (hPa) Tendencia (hPa) Humedad (%)
2020-07-11 23:00:00 -- -- -- -- -- -- -- -- --
2020-07-11 22:00:00 -- -- -- -- -- -- -- -- --
2020-07-11 21:00:00 29.7 22 Sudeste 50 Sudeste 0 -- -- 41
2020-07-11 20:00:00 31.1 25 Sudeste 49 Sudeste 0 -- -- 40
2020-07-11 19:00:00 31.4 24 Sudeste 45 Sudeste 0 -- -- 38
2020-07-11 18:00:00 32.5 24 Sudeste 52 Sur 0 -- -- 36
2020-07-11 17:00:00 33.9 27 Sudeste 59 Sudeste 0 -- -- 31
2020-07-11 16:00:00 33.2 32 Sudeste 57 Sudeste 0 -- -- 34
2020-07-11 15:00:00 33.8 23 Sudeste 48 Sudeste 0 -- -- 31
2020-07-11 14:00:00 33 28 Sudeste 48 Este 0 -- -- 32
2020-07-11 13:00:00 32.8 18 Sudeste 40 Sudeste 0 -- -- 32
2020-07-11 12:00:00 31.6 13 Sudeste 32 Este 0 -- -- 33
2020-07-11 11:00:00 30.9 9 Sudeste 26 Sudeste 0 -- -- 38
2020-07-11 10:00:00 29.4 13 Sudeste 26 Sudeste 0 -- -- 42
2020-07-11 09:00:00 27.8 15 Sudeste 33 Sudeste 0 -- -- 42
2020-07-11 08:00:00 26 18 Sudeste 31 Este 0 -- -- 40
2020-07-11 07:00:00 26.1 9 Sudeste 19 Sudeste 0 -- -- 39
2020-07-11 06:00:00 26.7 10 Sudeste 22 Sudeste 0 -- -- 41
2020-07-11 05:00:00 26.5 4 Sudeste 9 Sudeste 0 -- -- 40
2020-07-11 04:00:00 25.4 5 Norte 17 Sudeste 0 -- -- 44
2020-07-11 03:00:00 27.5 10 Sudeste 19 Sur 0 -- -- 42
2020-07-11 02:00:00 27.6 10 Sudeste 17 Sudeste 0 -- -- 40
2020-07-11 01:00:00 28.8 3 Sur 9 Sur 0 -- -- 38
2020-07-11 00:00:00 29.4 6 Sur 14 Sur 0 -- -- 37
2020-07-10 23:00:00 30.1 7 Sudoeste 14 Oeste 0 -- -- 37
2020-07-10 22:00:00 31.6 9 Oeste 26 Oeste 0 -- -- 36
2020-07-10 21:00:00 35.2 18 Oeste 27 Oeste 0 -- -- 29
2020-07-10 20:00:00 36.8 5 Sudoeste 19 Noroeste 0 -- -- 20
2020-07-10 19:00:00 36.7 6 Nordeste 17 Oeste 0 -- -- 20
2020-07-10 18:00:00 36.5 8 Noroeste 20 Oeste 0 -- -- 20
2020-07-10 17:00:00 35.9 12 Oeste 21 Noroeste 0 -- -- 25
2020-07-10 16:00:00 34.3 7 Norte 21 Noroeste 0 -- -- 28
2020-07-10 15:00:00 33.3 7 Oeste 20 Noroeste 0 -- -- 31
2020-07-10 14:00:00 31.7 9 Noroeste 22 Noroeste 0 -- -- 35
2020-07-10 13:00:00 30 6 Noroeste 16 Oeste 0 -- -- 40
2020-07-10 12:00:00 27.8 5 Oeste 12 Oeste 0 -- -- 45
2020-07-10 11:00:00 25.7 5 Noroeste 12 Sudoeste 0 -- -- 51
2020-07-10 10:00:00 23.7 4 Noroeste 7 Oeste 0 -- -- 54
2020-07-10 09:00:00 21.9 5 Sudoeste 13 Oeste 0 -- -- 61
2020-07-10 08:00:00 19.5 6 Nordeste 14 Norte 0 -- -- 72
2020-07-10 07:00:00 21.4 0 Calma 7 Sudeste 0 -- -- 64
2020-07-10 06:00:00 20.2 4 Nordeste 12 Norte 0 -- -- 71
2020-07-10 05:00:00 20.3 3 Oeste 8 Norte 0 -- -- 72
2020-07-10 04:00:00 20.4 4 Norte 8 Norte 0 -- -- 71
2020-07-10 03:00:00 21.2 4 Norte 11 Sudeste 0 -- -- 67
2020-07-10 02:00:00 23.4 9 Sudeste 16 Sudeste 0 -- -- 61
2020-07-10 01:00:00 22.8 5 Sudoeste 13 Oeste 0 -- -- 63
2020-07-10 00:00:00 23.6 8 Oeste 15 Oeste 0 -- -- 59
2020-07-09 23:00:00 25.4 10 Oeste 16 Oeste 0 -- -- 53
2020-07-09 22:00:00 27.6 12 Oeste 22 Oeste 0 -- -- 47
2020-07-09 21:00:00 30.8 19 Oeste 27 Oeste 0 -- -- 39
2020-07-09 20:00:00 32.2 17 Oeste 26 Oeste 0 -- -- 35
2020-07-09 19:00:00 33.1 15 Oeste 28 Oeste 0 -- -- 31
2020-07-09 18:00:00 33.3 16 Oeste 28 Oeste 0 -- -- 30
2020-07-09 17:00:00 33 15 Oeste 27 Oeste 0 -- -- 31
2020-07-09 16:00:00 31.7 15 Oeste 26 Oeste 0 -- -- 32
2020-07-09 15:00:00 30 10 Noroeste 28 Oeste 0 -- -- 39
2020-07-09 14:00:00 27.9 9 Noroeste 19 Noroeste 0 -- -- 47
2020-07-09 13:00:00 25.8 6 Noroeste 15 Norte 0 -- -- 54
2020-07-09 12:00:00 23.9 5 Nordeste 12 Norte 0 -- -- 62
2020-07-09 11:00:00 21.7 3 Norte 11 Norte 0 -- -- 70
2020-07-09 10:00:00 19.2 5 Norte 10 Norte 0 -- -- 80
2020-07-09 09:00:00 18.7 4 Noroeste 9 Noroeste 0 -- -- 85
2020-07-09 08:00:00 18.4 4 Oeste 8 Oeste 0 -- -- 85
2020-07-09 07:00:00 18.4 4 Norte 10 Norte 0 -- -- 83
2020-07-09 06:00:00 18.9 5 Nordeste 12 Norte 0 -- -- 74
2020-07-09 05:00:00 20.1 4 Nordeste 10 Nordeste 0 -- -- 66
2020-07-09 04:00:00 21.3 4 Nordeste 11 Nordeste 0 -- -- 63
2020-07-09 03:00:00 22.5 6 Norte 12 Nordeste 0 -- -- 61
2020-07-09 02:00:00 24.8 4 Norte 8 Nordeste 0 -- -- 51
2020-07-09 01:00:00 25.2 4 Norte 7 Norte 0 -- -- 49
2020-07-09 00:00:00 26.6 4 Sudoeste 9 Sudoeste 0 -- -- 46
2020-07-08 23:00:00 27.4 4 Oeste 22 Oeste 0 -- -- 43
2020-07-08 22:00:00 28.6 8 Oeste 40 Oeste 0 -- -- 38
2020-07-08 21:00:00 31 23 Oeste 41 Oeste 0 -- -- 31
2020-07-08 20:00:00 33.4 31 Oeste 45 Oeste 0 -- -- 27
2020-07-08 19:00:00 36.3 28 Oeste 42 Oeste 0 -- -- 26
2020-07-08 18:00:00 37.6 29 Oeste 46 Oeste 0 -- -- 21
2020-07-08 17:00:00 37.9 22 Oeste 41 Oeste 0 -- -- 19
2020-07-08 16:00:00 38.6 14 Oeste 25 Sudoeste 0 -- -- 20
2020-07-08 15:00:00 37.9 5 Sudoeste 25 Oeste 0 -- -- 20
2020-07-08 14:00:00 36.4 8 Oeste 21 Oeste 0 -- -- 21
2020-07-08 13:00:00 35.2 13 Oeste 21 Noroeste 0 -- -- 22
2020-07-08 12:00:00 33.8 8 Noroeste 15 Noroeste 0 -- -- 24
2020-07-08 11:00:00 32.9 6 Noroeste 13 Noroeste 0 -- -- 24
2020-07-08 10:00:00 31.3 6 Sudeste 13 Oeste 0 -- -- 26
2020-07-08 09:00:00 29.7 8 Sudeste 25 Sudeste 0 -- -- 27
2020-07-08 08:00:00 29.1 9 Sudeste 15 Sudeste 0 -- -- 33
2020-07-08 07:00:00 29.2 12 Sudeste 27 Sudeste 0 -- -- 32
2020-07-08 06:00:00 29.8 9 Sudeste 14 Sudeste 0 -- -- 32
2020-07-08 05:00:00 29.3 3 Sur 9 Noroeste 0 -- -- 32
2020-07-08 04:00:00 29.8 4 Oeste 23 Sudeste 0 -- -- 30
2020-07-08 03:00:00 33.5 9 Sudeste 17 Sudeste 0 -- -- 26
2020-07-08 02:00:00 34.1 6 Sudeste 12 Nordeste 0 -- -- 26
2020-07-08 01:00:00 34.1 7 Sur 10 Sur 0 -- -- 26
2020-07-08 00:00:00 34.7 8 Sudeste 15 Sudeste 0 -- -- 24
2020-07-07 23:00:00 35.5 5 Sur 7 Sudoeste 0 -- -- 22
2020-07-07 22:00:00 36.6 3 Noroeste 9 Oeste 0 -- -- 20
2020-07-07 21:00:00 38.6 8 Noroeste 20 Noroeste 0 -- -- 18
2020-07-07 20:00:00 40.3 10 Oeste 22 Oeste 0 -- -- 17
2020-07-07 19:00:00 41.2 12 Oeste 26 Noroeste 0 -- -- 16
2020-07-07 18:00:00 41.4 14 Oeste 37 Oeste 0 -- -- 17
2020-07-07 17:00:00 41.3 18 Oeste 33 Oeste 0 -- -- 17
2020-07-07 16:00:00 41.2 19 Oeste 36 Oeste 0 -- -- 17
2020-07-07 15:00:00 40.4 13 Oeste 28 Noroeste 0 -- -- 18
2020-07-07 14:00:00 39.2 8 Noroeste 16 Noroeste 0 -- -- 19
2020-07-07 13:00:00 37.8 4 Noroeste 12 Oeste 0 -- -- 22
2020-07-07 12:00:00 35.9 5 Noroeste 10 Noroeste 0 -- -- 25
2020-07-07 11:00:00 33.6 5 Noroeste 9 Noroeste 0 -- -- 28
2020-07-07 10:00:00 31.9 4 Noroeste 6 Oeste 0 -- -- 30
2020-07-07 09:00:00 31 0 Calma 4 Este 0 -- -- 33
2020-07-07 08:00:00 28.9 3 Este 8 Este 0 -- -- 33
2020-07-07 07:00:00 28 7 Este 14 Este 0 -- -- 36
2020-07-07 06:00:00 28.9 5 Sudeste 8 Sudeste 0 -- -- 34
2020-07-07 05:00:00 29.7 5 Sudeste 12 Sudeste 0 -- -- 33
2020-07-07 04:00:00 29.1 7 Sudeste 17 Sudeste 0 -- -- 36
2020-07-07 03:00:00 28.3 10 Sudeste 17 Sudeste 0 -- -- 37
2020-07-07 02:00:00 28.2 9 Oeste 15 Sudoeste 0 -- -- 37
2020-07-07 01:00:00 29.5 5 Noroeste 12 Sudoeste 0 -- -- 36
2020-07-07 00:00:00 31.1 7 Sur 17 Oeste 0 -- -- 34
2020-07-06 23:00:00 31.8 9 Oeste 20 Sudoeste 0 -- -- 32
2020-07-06 22:00:00 33.6 14 Sudoeste 41 Oeste 0 -- -- 29
2020-07-06 21:00:00 39.6 7 Oeste 14 Oeste 0 -- -- 18
2020-07-06 20:00:00 40.4 7 Oeste 18 Sudoeste 0 -- -- 17
2020-07-06 19:00:00 40.5 11 Sudoeste 20 Noroeste 0 -- -- 17
2020-07-06 18:00:00 40.3 10 Noroeste 25 Noroeste 0 -- -- 17
2020-07-06 17:00:00 39.9 6 Oeste 25 Noroeste 0 -- -- 18
2020-07-06 16:00:00 39 10 Norte 20 Norte 0 -- -- 19
2020-07-06 15:00:00 37.9 7 Nordeste 17 Noroeste 0 -- -- 21
2020-07-06 14:00:00 36.7 4 Norte 13 Norte 0 -- -- 23
2020-07-06 13:00:00 35.1 4 Oeste 12 Norte 0 -- -- 25
2020-07-06 12:00:00 33 5 Norte 14 Noroeste 0 -- -- 26
2020-07-06 11:00:00 30.8 4 Norte 11 Norte 0 -- -- 28
2020-07-06 10:00:00 28.2 6 Norte 12 Noroeste 0 -- -- 39
2020-07-06 09:00:00 27.3 4 Norte 6 Norte 0 -- -- 41
2020-07-06 08:00:00 25.6 3 Este 6 Nordeste 0 -- -- 44
2020-07-06 07:00:00 25 2 Este 5 Este 0 -- -- 47
2020-07-06 06:00:00 24.8 0 Calma 6 Nordeste 0 -- -- 39
2020-07-06 05:00:00 24.3 3 Norte 10 Este 0 -- -- 38
2020-07-06 04:00:00 26.7 10 Este 19 Sudeste 0 -- -- 33
2020-07-06 03:00:00 26.8 8 Sudeste 14 Sudeste 0 -- -- 34
2020-07-06 02:00:00 27 5 Nordeste 17 Sudeste 0 -- -- 32
2020-07-06 01:00:00 29 8 Sudeste 14 Sur 0 -- -- 30
2020-07-06 00:00:00 29.3 3 Sudoeste 26 Sudeste 0 -- -- 28
2020-07-05 23:00:00 30.5 13 Sudeste 27 Sudeste 0 -- -- 25
2020-07-05 22:00:00 31.8 15 Sudeste 27 Sudeste 0 -- -- 23
2020-07-05 21:00:00 34.1 16 Sudeste 28 Sudeste 0 -- -- 22
2020-07-05 20:00:00 35.5 18 Sudeste 32 Sudeste 0 -- -- 21
2020-07-05 19:00:00 36 19 Sudeste 36 Sudeste 0 -- -- 21
2020-07-05 18:00:00 36 19 Sudeste 44 Sudeste 0 -- -- 21
2020-07-05 17:00:00 35.5 24 Sudeste 43 Sudeste 0 -- -- 21
2020-07-05 16:00:00 35 26 Sudeste 49 Sudeste 0 -- -- 23
2020-07-05 15:00:00 33.9 25 Sudeste 48 Sudeste 0 -- -- 28
2020-07-05 14:00:00 33.4 21 Sudeste 44 Sudeste 0 -- -- 29
2020-07-05 13:00:00 32.6 16 Sudeste 36 Sudeste 0 -- -- 31
2020-07-05 12:00:00 31.1 19 Sudeste 35 Sudeste 0 -- -- 35
2020-07-05 11:00:00 29.8 17 Sudeste 35 Sudeste 0 -- -- 36
2020-07-05 10:00:00 28.4 17 Sudeste 35 Sudeste 0 -- -- 39
2020-07-05 09:00:00 26.9 18 Sudeste 32 Sudeste 0 -- -- 42
2020-07-05 08:00:00 26.4 20 Sudeste 39 Sudeste 0 -- -- 41
2020-07-05 07:00:00 24.9 11 Este 24 Este 0 -- -- 48
2020-07-05 06:00:00 24.1 7 Este 18 Sudeste 0 -- -- 51
2020-07-05 05:00:00 24.2 2 Sudeste 8 Sudoeste 0 -- -- 59
2020-07-05 04:00:00 24.6 4 Nordeste 13 Norte 0 -- -- 61
2020-07-05 03:00:00 26.4 6 Nordeste 11 Nordeste 0 -- -- 41
2020-07-05 02:00:00 28.2 4 Sur 17 Sudoeste 0 -- -- 31
2020-07-05 01:00:00 28.8 11 Sudoeste 35 Sur 0 -- -- 31
2020-07-05 00:00:00 28.9 13 Sur 31 Sudeste 0 -- -- 32
2020-07-04 23:00:00 28.9 15 Sur 35 Sudeste 0 -- -- 36
2020-07-04 22:00:00 29.9 18 Sudeste 35 Sudeste 0 -- -- 31
2020-07-04 21:00:00 32.3 18 Sudeste 33 Sudeste 0 -- -- 25
2020-07-04 20:00:00 34.2 17 Sudeste 40 Sudeste 0 -- -- 24
2020-07-04 19:00:00 35.4 16 Sudeste 29 Sudeste 0 -- -- 22
2020-07-04 18:00:00 35.8 12 Sudeste 24 Sudeste 0 -- -- 20
2020-07-04 17:00:00 35.4 10 Sudeste 34 Este 0 -- -- 22
2020-07-04 16:00:00 34.3 18 Sudeste 32 Sudeste 0 -- -- 27
2020-07-04 15:00:00 33.8 12 Sudeste 26 Sudeste 0 -- -- 32
2020-07-04 14:00:00 32.9 10 Sudeste 24 Sudeste 0 -- -- 34
2020-07-04 13:00:00 31.3 10 Sur 26 Sudeste 0 -- -- 41
2020-07-04 12:00:00 29.7 15 Sudeste 25 Este 0 -- -- 45
2020-07-04 11:00:00 29.6 5 Este 18 Este 0 -- -- 43
2020-07-04 10:00:00 26.4 8 Nordeste 16 Nordeste 0 -- -- 50
2020-07-04 09:00:00 23.9 4 Oeste 8 Oeste 0 -- -- 57
2020-07-04 08:00:00 21.9 3 Oeste 8 Oeste 0 -- -- 58
2020-07-04 07:00:00 21.2 5 Nordeste 9 Nordeste 0 -- -- 60
2020-07-04 06:00:00 21.6 0 Calma 5 Oeste 0 -- -- 54
2020-07-04 05:00:00 21.6 3 Oeste 8 Norte 0 -- -- 49
2020-07-04 04:00:00 22.9 4 Norte 8 Oeste 0 -- -- 46
2020-07-04 03:00:00 23.3 2 Este 7 Nordeste 0 -- -- 45
2020-07-04 02:00:00 23.4 2 Nordeste 8 Nordeste 0 -- -- 45
2020-07-04 01:00:00 24.4 5 Nordeste 10 Norte 0 -- -- 41
2020-07-04 00:00:00 26.9 3 Sudoeste 9 Sudoeste 0 -- -- 29
2020-07-03 23:00:00 28 5 Sudoeste 13 Sudoeste 0 -- -- 28
2020-07-03 22:00:00 30.3 8 Sudoeste 19 Oeste 0 -- -- 24
2020-07-03 21:00:00 32.8 15 Oeste 27 Oeste 0 -- -- 18
2020-07-03 20:00:00 34.1 18 Oeste 30 Oeste 0 -- -- 18
2020-07-03 19:00:00 34.8 17 Oeste 30 Oeste 0 -- -- 18
2020-07-03 18:00:00 34.9 19 Oeste 31 Oeste 0 -- -- 19
2020-07-03 17:00:00 34.3 18 Noroeste 28 Noroeste 0 -- -- 20
2020-07-03 16:00:00 33.7 13 Noroeste 28 Oeste 0 -- -- 21
2020-07-03 15:00:00 32.9 10 Oeste 25 Oeste 0 -- -- 21
2020-07-03 14:00:00 31.7 12 Oeste 22 Oeste 0 -- -- 22
2020-07-03 13:00:00 30.3 10 Oeste 22 Oeste 0 -- -- 23
2020-07-03 12:00:00 28.2 3 Sur 13 Oeste 0 -- -- 33
2020-07-03 11:00:00 26.1 5 Oeste 11 Oeste 0 -- -- 40
2020-07-03 10:00:00 23.8 2 Oeste 8 Nordeste 0 -- -- 43
2020-07-03 09:00:00 22.1 5 Norte 9 Norte 0 -- -- 47
2020-07-03 08:00:00 22.1 0 Calma 4 Norte 0 -- -- 53
2020-07-03 07:00:00 22.1 0 Calma 6 Sudoeste 0 -- -- 52
2020-07-03 06:00:00 22.6 3 Sur 8 Sur 0 -- -- 50
2020-07-03 05:00:00 23.2 4 Sudoeste 9 Sudoeste 0 -- -- 49
2020-07-03 04:00:00 23.6 4 Sudoeste 14 Sudoeste 0 -- -- 49
2020-07-03 03:00:00 24.2 6 Sudoeste 16 Sudoeste 0 -- -- 47
2020-07-03 02:00:00 25.1 6 Sudoeste 13 Sudoeste 0 -- -- 45
2020-07-03 01:00:00 26.2 10 Sudoeste 24 Sudoeste 0 -- -- 43
2020-07-03 00:00:00 26.8 10 Oeste 28 Sudoeste 0 -- -- 40
2020-07-02 23:00:00 27.9 13 Sudoeste 33 Oeste 0 -- -- 37
2020-07-02 22:00:00 29.7 15 Oeste 38 Oeste 0 -- -- 33
2020-07-02 21:00:00 32.3 19 Oeste 40 Oeste 0 -- -- 30
2020-07-02 20:00:00 34 26 Oeste 38 Oeste 0 -- -- 26
2020-07-02 19:00:00 35.1 17 Oeste 40 Oeste 0 -- -- 23
2020-07-02 18:00:00 35.2 23 Oeste 45 Sudoeste 0 -- -- 20
2020-07-02 17:00:00 34.7 21 Oeste 39 Oeste 0 -- -- 23
2020-07-02 16:00:00 34.7 18 Oeste 38 Oeste 0 -- -- 23
2020-07-02 15:00:00 33.7 19 Oeste 31 Oeste 0 -- -- 27
2020-07-02 14:00:00 33 15 Oeste 32 Oeste 0 -- -- 31
2020-07-02 13:00:00 31.1 8 Noroeste 17 Oeste 0 -- -- 31
2020-07-02 12:00:00 28.9 5 Oeste 14 Noroeste 0 -- -- 40
2020-07-02 11:00:00 26.5 5 Oeste 13 Oeste 0 -- -- 46
2020-07-02 10:00:00 25 5 Noroeste 8 Noroeste 0 -- -- 47
2020-07-02 09:00:00 24.1 4 Noroeste 5 Noroeste 0 -- -- 48
2020-07-02 08:00:00 22.6 2 Norte 4 Noroeste 0 -- -- 51
2020-07-02 07:00:00 22.8 0 Calma 8 Sudoeste 0 -- -- 48
2020-07-02 06:00:00 23.1 4 Sur 13 Sudoeste 0 -- -- 47
2020-07-02 05:00:00 22.9 7 Sur 15 Sur 0 -- -- 46
2020-07-02 04:00:00 22.3 3 Sudeste 8 Oeste 0 -- -- 54
2020-07-02 03:00:00 22.3 3 Sudoeste 7 Oeste 0 -- -- 60
2020-07-02 02:00:00 23.5 4 Norte 12 Nordeste 0 -- -- 53
2020-07-02 01:00:00 25.5 4 Sudoeste 12 Sudoeste 0 -- -- 39
2020-07-02 00:00:00 26.3 5 Sudoeste 13 Sudoeste 0 -- -- 44
2020-07-01 23:00:00 27.1 5 Oeste 15 Oeste 0 -- -- 43
2020-07-01 22:00:00 29.5 9 Oeste 25 Oeste 0 -- -- 38
2020-07-01 21:00:00 32.2 17 Oeste 31 Oeste 0 -- -- 33
2020-07-01 20:00:00 34.3 20 Oeste 33 Oeste 0 -- -- 30
2020-07-01 19:00:00 35.6 19 Oeste 33 Oeste 0 -- -- 24
2020-07-01 18:00:00 35.6 21 Oeste 47 Oeste 0 -- -- 23
2020-07-01 17:00:00 35.3 19 Oeste 31 Oeste 0 -- -- 23
2020-07-01 16:00:00 34.7 15 Oeste 24 Oeste 0 -- -- 24
2020-07-01 15:00:00 33.5 11 Oeste 28 Oeste 0 -- -- 25
2020-07-01 14:00:00 31.5 14 Oeste 23 Oeste 0 -- -- 34
2020-07-01 13:00:00 29.7 11 Oeste 18 Oeste 0 -- -- 39
2020-07-01 12:00:00 27.4 8 Oeste 15 Oeste 0 -- -- 46
2020-07-01 11:00:00 25.1 5 Noroeste 11 Noroeste 0 -- -- 55
2020-07-01 10:00:00 22.8 4 Noroeste 9 Noroeste 0 -- -- 64
2020-07-01 09:00:00 21.4 4 Noroeste 7 Norte 0 -- -- 69
2020-07-01 08:00:00 20.3 3 Nordeste 5 Norte 0 -- -- 72
2020-07-01 07:00:00 19.9 4 Nordeste 9 Nordeste 0 -- -- 71
2020-07-01 06:00:00 20.3 2 Norte 9 Nordeste 0 -- -- 68
2020-07-01 05:00:00 21.2 4 Norte 9 Norte 0 -- -- 59
2020-07-01 04:00:00 21.9 3 Sur 6 Nordeste 0 -- -- 57
2020-07-01 03:00:00 22.2 0 Calma 6 Oeste 0 -- -- 55
2020-07-01 02:00:00 23.1 5 Sudoeste 14 Sudoeste 0 -- -- 54
2020-07-01 01:00:00 23.3 6 Oeste 14 Oeste 0 -- -- 53
2020-07-01 00:00:00 24.5 7 Oeste 26 Oeste 0 -- -- 52
2020-06-30 23:00:00 26.6 15 Oeste 24 Oeste 0 -- -- 46
2020-06-30 22:00:00 28.6 16 Oeste 26 Oeste 0 -- -- 43
2020-06-30 21:00:00 30.6 21 Oeste 33 Oeste 0 -- -- 45
2020-06-30 20:00:00 32.8 23 Oeste 37 Oeste 0 -- -- 42
2020-06-30 19:00:00 35.1 28 Oeste 37 Oeste 0 -- -- 36
2020-06-30 18:00:00 37.4 19 Oeste 38 Noroeste 0 -- -- 23
2020-06-30 17:00:00 37.1 17 Oeste 33 Oeste 0 -- -- 24
2020-06-30 16:00:00 36.3 15 Noroeste 26 Noroeste 0 -- -- 24
2020-06-30 15:00:00 35.6 12 Oeste 24 Oeste 0 -- -- 23
2020-06-30 14:00:00 34.5 9 Oeste 22 Oeste 0 -- -- 23
2020-06-30 13:00:00 33.4 11 Oeste 22 Oeste 0 -- -- 25
2020-06-30 12:00:00 31.9 12 Oeste 18 Noroeste 0 -- -- 26
2020-06-30 11:00:00 30.3 8 Oeste 13 Oeste 0 -- -- 27
2020-06-30 10:00:00 28.4 8 Este 15 Sudeste 0 -- -- 29
2020-06-30 09:00:00 26.3 9 Sudeste 19 Sudeste 0 -- -- 38
2020-06-30 08:00:00 24.6 11 Sudeste 14 Este 0 -- -- 42
2020-06-30 07:00:00 24.2 8 Sudeste 13 Sudeste 0 -- -- 43
2020-06-30 06:00:00 24.6 4 Sudeste 8 Sur 0 -- -- 43
2020-06-30 05:00:00 24.6 5 Sur 9 Sur 0 -- -- 43
2020-06-30 04:00:00 24.7 4 Oeste 9 Noroeste 0 -- -- 43
2020-06-30 03:00:00 26.8 5 Noroeste 15 Sudoeste 0 -- -- 33
2020-06-30 02:00:00 28.1 3 Sudoeste 27 Sudeste 0 -- -- 28
2020-06-30 01:00:00 28.8 12 Sudeste 21 Sudeste 0 -- -- 27
2020-06-30 00:00:00 30.2 9 Sudeste 18 Sudeste 0 -- -- 23
2020-06-29 23:00:00 31.8 8 Sur 15 Oeste 0 -- -- 20
2020-06-29 22:00:00 33.7 8 Oeste 19 Sudeste 0 -- -- 32
2020-06-29 21:00:00 35.8 13 Sudeste 22 Sudeste 0 -- -- 15
2020-06-29 20:00:00 37.4 12 Sudeste 23 Sudeste 0 -- -- 14
2020-06-29 19:00:00 38.1 10 Sur 23 Sudeste 0 -- -- 15
2020-06-29 18:00:00 38.4 12 Sudeste 24 Sudeste 0 -- -- 15
2020-06-29 17:00:00 38.2 6 Sudeste 18 Este 0 -- -- 15
2020-06-29 16:00:00 37.8 7 Sur 25 Sudeste 0 -- -- 14
2020-06-29 15:00:00 36.9 11 Sudeste 22 Sudeste 0 -- -- 17
2020-06-29 14:00:00 36.2 8 Sudeste 16 Este 0 -- -- 21
2020-06-29 13:00:00 34.4 6 Norte 14 Norte 0 -- -- 26
2020-06-29 12:00:00 32.5 7 Norte 13 Nordeste 0 -- -- 30
2020-06-29 11:00:00 30.7 5 Norte 12 Nordeste 0 -- -- 34
2020-06-29 10:00:00 28.3 4 Noroeste 7 Noroeste 0 -- -- 40
2020-06-29 09:00:00 26.6 3 Noroeste 5 Sudeste 0 -- -- 44
2020-06-29 08:00:00 25.6 3 Nordeste 8 Sudeste 0 -- -- 45
2020-06-29 07:00:00 24.9 2 Sudeste 8 Nordeste 0 -- -- 47
2020-06-29 06:00:00 24.5 6 Nordeste 14 Nordeste 0 -- -- 49
2020-06-29 05:00:00 25.8 7 Nordeste 10 Nordeste 0 -- -- 45
2020-06-29 04:00:00 26 0 Calma 7 Sudeste 0 -- -- 44
2020-06-29 03:00:00 26.2 2 Noroeste 14 Sudeste 0 -- -- 46
2020-06-29 02:00:00 27.9 9 Sudeste 13 Sudeste 0 -- -- 42
2020-06-29 01:00:00 29.3 4 Sur 13 Sudoeste 0 -- -- 41
2020-06-29 00:00:00 29.4 7 Sur 17 Sudoeste 0 -- -- 41
2020-06-28 23:00:00 30.7 8 Sudoeste 21 Sudoeste 0 -- -- 39
2020-06-28 22:00:00 32.9 12 Oeste 24 Oeste 0 -- -- 30
2020-06-28 21:00:00 35.8 13 Noroeste 20 Noroeste 0 -- -- 27
2020-06-28 20:00:00 36.9 11 Noroeste 19 Oeste 0 -- -- 22
2020-06-28 19:00:00 37.2 14 Noroeste 23 Oeste 0 -- -- 21
2020-06-28 18:00:00 37 8 Noroeste 21 Noroeste 0 -- -- 22
2020-06-28 17:00:00 36.6 5 Noroeste 21 Oeste 0 -- -- 23
2020-06-28 16:00:00 35.9 7 Oeste 22 Oeste 0 -- -- 24
2020-06-28 15:00:00 35 10 Noroeste 28 Sudoeste 0 -- -- 25
2020-06-28 14:00:00 33.5 5 Nordeste 19 Noroeste 0 -- -- 30
2020-06-28 13:00:00 32 5 Noroeste 15 Nordeste 0 -- -- 35
2020-06-28 12:00:00 30.3 6 Norte 16 Noroeste 0 -- -- 40
2020-06-28 11:00:00 27.9 6 Norte 13 Noroeste 0 -- -- 45
2020-06-28 10:00:00 25.8 5 Norte 9 Noroeste 0 -- -- 49
2020-06-28 09:00:00 24.5 4 Noroeste 6 Norte 0 -- -- 54
2020-06-28 08:00:00 23.4 4 Este 9 Sudeste 0 -- -- 54
2020-06-28 07:00:00 22.4 0 Calma 4 Este 0 -- -- 59
2020-06-28 06:00:00 22.3 3 Sur 8 Nordeste 0 -- -- 60
2020-06-28 05:00:00 22.4 3 Norte 6 Nordeste 0 -- -- 59
2020-06-28 04:00:00 22.3 4 Nordeste 8 Norte 0 -- -- 60
2020-06-28 03:00:00 22.9 2 Norte 4 Norte 0 -- -- 58
2020-06-28 02:00:00 23.5 3 Norte 8 Noroeste 0 -- -- 57
2020-06-28 01:00:00 25 4 Sudoeste 9 Sudoeste 0 -- -- 50
2020-06-28 00:00:00 25.6 6 Sudoeste 17 Sudoeste 0 -- -- 49
2020-06-27 23:00:00 26.6 7 Sudoeste 28 Sudoeste 0 -- -- 49
2020-06-27 22:00:00 29 18 Oeste 24 Oeste 0 -- -- 42
2020-06-27 21:00:00 31.9 14 Oeste 27 Oeste 0 -- -- 31
2020-06-27 20:00:00 33 15 Oeste 25 Oeste 0 -- -- 29
2020-06-27 19:00:00 33.7 14 Oeste 24 Oeste 0 -- -- 27
2020-06-27 18:00:00 33.2 12 Oeste 23 Noroeste 0 -- -- 27
2020-06-27 17:00:00 32.8 15 Oeste 28 Oeste 0 -- -- 27
2020-06-27 16:00:00 31.9 9 Oeste 23 Oeste 0 -- -- 29
2020-06-27 15:00:00 30.6 9 Oeste 21 Noroeste 0 -- -- 31
2020-06-27 14:00:00 29.2 9 Noroeste 32 Oeste 0 -- -- 33
2020-06-27 13:00:00 28.2 8 Noroeste 16 Oeste 0 -- -- 35
2020-06-27 12:00:00 26.2 3 Nordeste 9 Noroeste 0 -- -- 41
2020-06-27 11:00:00 24.1 3 Nordeste 10 Noroeste 0 -- -- 48
2020-06-27 10:00:00 22.8 0 Calma 8 Oeste 0 -- -- 53
2020-06-27 09:00:00 21.5 2 Noroeste 7 Norte 0 -- -- 50
2020-06-27 08:00:00 19.4 3 Norte 5 Norte 0 -- -- 53
2020-06-27 07:00:00 19.1 0 Calma 4 Norte 0 -- -- 54
2020-06-27 06:00:00 19.1 2 Nordeste 6 Sudoeste 0 -- -- 54
2020-06-27 05:00:00 20.4 3 Sudoeste 10 Sur 0 -- -- 49
2020-06-27 04:00:00 20.5 5 Sur 10 Sur 0 -- -- 51
2020-06-27 03:00:00 19.9 3 Sur 5 Sudoeste 0 -- -- 60
2020-06-27 02:00:00 20.4 2 Norte 8 Sudoeste 0 -- -- 61
2020-06-27 01:00:00 20.8 4 Oeste 14 Oeste 0 -- -- 59
2020-06-27 00:00:00 22 10 Oeste 16 Oeste 0 -- -- 54
2020-06-26 23:00:00 23.7 9 Oeste 23 Oeste 0 -- -- 49
2020-06-26 22:00:00 25.5 14 Oeste 29 Oeste 0 -- -- 44
2020-06-26 21:00:00 28.2 20 Oeste 33 Oeste 0 -- -- 32
2020-06-26 20:00:00 29.9 22 Oeste 42 Oeste 0 -- -- 33
2020-06-26 19:00:00 30.6 21 Oeste 37 Oeste 0 -- -- 31
2020-06-26 18:00:00 30.8 21 Oeste 39 Oeste 0 -- -- 35
2020-06-26 17:00:00 30.8 21 Oeste 34 Oeste 0 -- -- 38
2020-06-26 16:00:00 29.5 17 Oeste 31 Oeste 0 -- -- 42
2020-06-26 15:00:00 27.9 19 Oeste 32 Oeste 0 -- -- 51
2020-06-26 14:00:00 27.2 18 Oeste 32 Oeste 0 -- -- 51
2020-06-26 13:00:00 25.7 17 Oeste 32 Oeste 0 -- -- 54
2020-06-26 12:00:00 24.3 12 Oeste 23 Oeste 0 -- -- 59
2020-06-26 11:00:00 21.6 8 Sudoeste 18 Oeste 0 -- -- 69
2020-06-26 10:00:00 21 5 Sudoeste 12 Sudoeste 0 -- -- 73
2020-06-26 09:00:00 19.6 5 Sur 11 Sudeste 0 -- -- 80
2020-06-26 08:00:00 18.6 4 Sudoeste 6 Sur 0 -- -- 83
2020-06-26 07:00:00 18.2 2 Oeste 4 Oeste 0 -- -- 84
2020-06-26 06:00:00 18.7 3 Oeste 7 Oeste 0 -- -- 82
2020-06-26 05:00:00 19.2 5 Sudoeste 9 Sur 0 -- -- 81
2020-06-26 04:00:00 19.5 6 Sudoeste 9 Sudoeste 0 -- -- 79
2020-06-26 03:00:00 19.6 4 Oeste 9 Oeste 0 -- -- 78
2020-06-26 02:00:00 20.1 7 Oeste 14 Oeste 0 -- -- 76
2020-06-26 01:00:00 21.2 10 Oeste 18 Oeste 0 -- -- 72
2020-06-26 00:00:00 22 13 Oeste 24 Oeste 0 -- -- 69
2020-06-25 23:00:00 23.2 15 Oeste 25 Oeste 0 -- -- 65
2020-06-25 22:00:00 24.5 19 Oeste 34 Oeste 0 -- -- 61
2020-06-25 21:00:00 27.1 23 Oeste 38 Oeste 0 -- -- 55
2020-06-25 20:00:00 29.3 24 Oeste 35 Oeste 0 -- -- 50
2020-06-25 19:00:00 31 24 Oeste 37 Oeste 0 -- -- 45
2020-06-25 18:00:00 32.1 21 Oeste 35 Oeste 0 -- -- 42
2020-06-25 17:00:00 32.8 14 Oeste 30 Noroeste 0 -- -- 37
2020-06-25 16:00:00 32 16 Oeste 29 Oeste 0 -- -- 37
2020-06-25 15:00:00 30.4 12 Noroeste 28 Oeste 0 -- -- 38
2020-06-25 14:00:00 29.3 12 Noroeste 31 Noroeste 0 -- -- 41
2020-06-25 13:00:00 28.2 12 Oeste 20 Oeste 0 -- -- 44
2020-06-25 12:00:00 26.1 4 Norte 15 Noroeste 0 -- -- 48
2020-06-25 11:00:00 24.1 5 Noroeste 15 Oeste 0 -- -- 53
2020-06-25 10:00:00 22.7 7 Noroeste 19 Oeste 0 -- -- 60
2020-06-25 09:00:00 22.2 8 Noroeste 14 Noroeste 0 -- -- 60
2020-06-25 08:00:00 22 2 Sudoeste 6 Sudeste 0 -- -- 62
2020-06-25 07:00:00 21.7 3 Sudeste 6 Sudeste 0 -- -- 65
2020-06-25 06:00:00 21.8 4 Sur 7 Sudeste 0 -- -- 65
2020-06-25 05:00:00 21.9 4 Sur 9 Sudoeste 0 -- -- 66
2020-06-25 04:00:00 22.4 5 Sudoeste 10 Sudoeste 0 -- -- 65
2020-06-25 03:00:00 23 4 Sudoeste 8 Sudoeste 0 -- -- 65
2020-06-25 02:00:00 23.3 3 Noroeste 6 Sudoeste 0 -- -- 65
2020-06-25 01:00:00 23.9 4 Oeste 10 Oeste 0 -- -- 63
2020-06-25 00:00:00 25.2 6 Oeste 16 Oeste 0 -- -- 58
2020-06-24 23:00:00 26.6 4 Oeste 18 Oeste 0 -- -- 54
2020-06-24 22:00:00 28.4 11 Oeste 19 Oeste 0 -- -- 50
2020-06-24 21:00:00 31.1 13 Oeste 26 Oeste 0 -- -- 43
2020-06-24 20:00:00 33.3 17 Oeste 28 Oeste 0 -- -- 38
2020-06-24 19:00:00 35.7 15 Sudoeste 33 Sudoeste 0 -- -- 19
2020-06-24 18:00:00 35.7 18 Sur 41 Sur 0 -- -- 20
2020-06-24 17:00:00 35.6 22 Sudeste 38 Sur 0 -- -- 20
2020-06-24 16:00:00 35.5 16 Sur 40 Sudeste 0 -- -- 19
2020-06-24 15:00:00 34.8 22 Sudeste 35 Sudeste 0 -- -- 21
2020-06-24 14:00:00 34 6 Nordeste 21 Oeste 0 -- -- 27
2020-06-24 13:00:00 32.3 6 Noroeste 24 Noroeste 0 -- -- 31
2020-06-24 12:00:00 30.7 4 Noroeste 12 Noroeste 0 -- -- 35
2020-06-24 11:00:00 28.7 4 Norte 11 Norte 0 -- -- 39
2020-06-24 10:00:00 26.9 3 Noroeste 9 Noroeste 0 -- -- 43
2020-06-24 09:00:00 25.7 2 Oeste 4 Oeste 0 -- -- 46
2020-06-24 08:00:00 23.8 2 Sudeste 11 Sudeste 0 -- -- 49
2020-06-24 07:00:00 23.4 5 Sudeste 9 Sudeste 0 -- -- 48
2020-06-24 06:00:00 23.7 5 Sudeste 11 Sudeste 0 -- -- 49
2020-06-24 05:00:00 24.4 5 Sudeste 8 Sudeste 0 -- -- 50
2020-06-24 04:00:00 24.8 3 Sur 10 Sudoeste 0 -- -- 49
2020-06-24 03:00:00 25.4 5 Sudoeste 12 Sudoeste 0 -- -- 47
2020-06-24 02:00:00 26.5 4 Sur 18 Sudoeste 0 -- -- 44
2020-06-24 01:00:00 28.8 13 Sudoeste 31 Sudoeste 0 -- -- 30
2020-06-24 00:00:00 28.8 12 Sudoeste 32 Sudeste 0 -- -- 32
2020-06-23 23:00:00 29.6 8 Sur 27 Sur 0 -- -- 30
2020-06-23 22:00:00 31.1 9 Sur 18 Sur 0 -- -- 26
2020-06-23 21:00:00 33.3 12 Sur 28 Sudeste 0 -- -- 22
2020-06-23 20:00:00 34.4 13 Sur 30 Sur 0 -- -- 21
2020-06-23 19:00:00 34.9 16 Sur 33 Sur 0 -- -- 21
2020-06-23 18:00:00 35.5 20 Sudeste 37 Sur 0 -- -- 21
2020-06-23 17:00:00 35.6 20 Sur 46 Sur 0 -- -- 20
2020-06-23 16:00:00 34.7 22 Sur 46 Sur 0 -- -- 22
2020-06-23 15:00:00 35.3 22 Sudeste 46 Sudeste 0 -- -- 21
2020-06-23 14:00:00 35.1 18 Sudeste 40 Sudeste 0 -- -- 22
2020-06-23 13:00:00 34.6 13 Sudeste 29 Sur 0 -- -- 22
2020-06-23 12:00:00 33.3 15 Sudeste 35 Sur 0 -- -- 23
2020-06-23 11:00:00 32.3 14 Sudeste 32 Este 0 -- -- 24
2020-06-23 10:00:00 30.2 9 Este 23 Este 0 -- -- 29
2020-06-23 09:00:00 27.6 7 Este 18 Este 0 -- -- 34
2020-06-23 08:00:00 26.7 12 Sudeste 29 Sudeste 0 -- -- 34
2020-06-23 07:00:00 26.2 13 Este 22 Este 0 -- -- 35
2020-06-23 06:00:00 27.3 10 Sudeste 20 Sudeste 0 -- -- 31
2020-06-23 05:00:00 27 6 Sudeste 24 Sudeste 0 -- -- 30
2020-06-23 04:00:00 27.1 6 Sudeste 12 Sudeste 0 -- -- 30
2020-06-23 03:00:00 27.2 8 Sudoeste 22 Sur 0 -- -- 30
2020-06-23 02:00:00 29.2 13 Sudeste 36 Sudeste 0 -- -- 27
2020-06-23 01:00:00 29.1 19 Sudeste 48 Sudeste 0 -- -- 26
2020-06-23 00:00:00 29.2 21 Sudeste 45 Sudeste 0 -- -- 27
2020-06-22 23:00:00 29.4 21 Sudeste 37 Sudeste 0 -- -- 25
2020-06-22 22:00:00 30.8 14 Sudeste 37 Sudeste 0 -- -- 23
2020-06-22 21:00:00 32.5 20 Sudeste 46 Sudeste 0 -- -- 20
2020-06-22 20:00:00 33.8 25 Sudeste 46 Sudeste 0 -- -- 19
2020-06-22 19:00:00 34.7 27 Sudeste 55 Sudeste 0 -- -- 19
2020-06-22 18:00:00 35.1 29 Sudeste 50 Sudeste 0 -- -- 18
2020-06-22 17:00:00 35.1 27 Sudeste 61 Sudeste 0 -- -- 18
2020-06-22 16:00:00 34.8 26 Sudeste 58 Sudeste 0 -- -- 19
2020-06-22 15:00:00 34.4 27 Sudeste 57 Sudeste 0 -- -- 20
2020-06-22 14:00:00 33.5 30 Sudeste 54 Sudeste 0 -- -- 21
2020-06-22 13:00:00 33.8 12 Sudeste 31 Este 0 -- -- 22
2020-06-22 12:00:00 33.3 14 Sudeste 31 Sudeste 0 -- -- 22
2020-06-22 11:00:00 32.2 11 Sudeste 29 Sudeste 0 -- -- 22
2020-06-22 10:00:00 30.9 18 Sudeste 30 Sudeste 0 -- -- 25
2020-06-22 09:00:00 28.4 12 Sudeste 19 Sudeste 0 -- -- 30
2020-06-22 08:00:00 25.5 2 Norte 14 Sudeste 0 -- -- 35
2020-06-22 07:00:00 25.6 7 Sudeste 13 Sudeste 0 -- -- 35
2020-06-22 06:00:00 25.6 2 Este 6 Norte 0 -- -- 33
2020-06-22 05:00:00 26.8 4 Nordeste 5 Este 0 -- -- 31
2020-06-22 04:00:00 27.4 4 Este 8 Sudeste 0 -- -- 30
2020-06-22 03:00:00 27.8 5 Sudeste 9 Sudeste 0 -- -- 29
2020-06-22 02:00:00 28.3 5 Sudeste 12 Sudeste 0 -- -- 29
2020-06-22 01:00:00 28.8 2 Sur 11 Sur 0 -- -- 29
2020-06-22 00:00:00 29.5 4 Sur 11 Sudoeste 0 -- -- 25
2020-06-21 23:00:00 31.8 3 Este 7 Nordeste 0 -- -- 22
2020-06-21 22:00:00 33.1 4 Nordeste 12 Norte 0 -- -- 21
2020-06-21 21:00:00 35.7 5 Norte 17 Noroeste 0 -- -- 18
2020-06-21 20:00:00 36.4 4 Este 14 Noroeste 0 -- -- 17
2020-06-21 19:00:00 36.8 8 Oeste 18 Oeste 0 -- -- 17
2020-06-21 18:00:00 36.6 4 Sudoeste 21 Oeste 0 -- -- 17
2020-06-21 17:00:00 36 7 Nordeste 19 Noroeste 0 -- -- 19
2020-06-21 16:00:00 35.3 5 Nordeste 20 Noroeste 0 -- -- 21
2020-06-21 15:00:00 34.2 5 Norte 17 Norte 0 -- -- 22
2020-06-21 14:00:00 32.9 8 Nordeste 17 Nordeste 0 -- -- 24
2020-06-21 13:00:00 31.2 6 Nordeste 19 Nordeste 0 -- -- 26
2020-06-21 12:00:00 29.3 5 Norte 12 Nordeste 0 -- -- 30
2020-06-21 11:00:00 26.9 4 Este 12 Norte 0 -- -- 35
2020-06-21 10:00:00 25.1 6 Norte 13 Norte 0 -- -- 38
2020-06-21 09:00:00 24.6 3 Norte 5 Norte 0 -- -- 39
2020-06-21 08:00:00 22.7 3 Sudeste 4 Sudeste 0 -- -- 43
2020-06-21 07:00:00 22.4 2 Sudeste 3 Sur 0 -- -- 42
2020-06-21 06:00:00 23 0 Calma 4 Sudoeste 0 -- -- 40
2020-06-21 05:00:00 23.5 0 Calma 6 Sudoeste 0 -- -- 39
2020-06-21 04:00:00 24.4 4 Sudoeste 10 Sudoeste 0 -- -- 35
2020-06-21 03:00:00 25.1 6 Sur 10 Sur 0 -- -- 34
2020-06-21 02:00:00 25 4 Sur 8 Sudoeste 0 -- -- 36
2020-06-21 01:00:00 25.8 5 Sudoeste 11 Sudoeste 0 -- -- 36
2020-06-21 00:00:00 27 5 Sudoeste 13 Sudoeste 0 -- -- 35
2020-06-20 23:00:00 28.4 8 Sudoeste 15 Sur 0 -- -- 30
2020-06-20 22:00:00 29.9 4 Oeste 20 Oeste 0 -- -- 23
2020-06-20 21:00:00 32.5 16 Noroeste 25 Noroeste 0 -- -- 22
2020-06-20 20:00:00 34.2 17 Oeste 26 Oeste 0 -- -- 20
2020-06-20 19:00:00 34.7 16 Oeste 27 Oeste 0 -- -- 20
2020-06-20 18:00:00 34.6 10 Noroeste 30 Oeste 0 -- -- 21
2020-06-20 17:00:00 34.4 15 Noroeste 28 Oeste 0 -- -- 23
2020-06-20 16:00:00 33.9 6 Noroeste 22 Oeste 0 -- -- 24
2020-06-20 15:00:00 33 12 Noroeste 22 Noroeste 0 -- -- 25
2020-06-20 14:00:00 31.8 8 Noroeste 16 Nordeste 0 -- -- 29
2020-06-20 13:00:00 30.1 6 Norte 15 Norte 0 -- -- 32
2020-06-20 12:00:00 28.1 5 Norte 13 Este 0 -- -- 35
2020-06-20 11:00:00 26.1 5 Nordeste 12 Este 0 -- -- 40
2020-06-20 10:00:00 23.7 4 Nordeste 9 Norte 0 -- -- 45
2020-06-20 09:00:00 21.8 5 Oeste 14 Nordeste 0 -- -- 51
2020-06-20 08:00:00 19.8 4 Nordeste 12 Este 0 -- -- 54
2020-06-20 07:00:00 21 11 Sudeste 15 Sudeste 0 -- -- 51
2020-06-20 06:00:00 19.9 2 Este 7 Sudeste 0 -- -- 53
2020-06-20 05:00:00 19.7 0 Calma 3 Sur 0 -- -- 55
2020-06-20 04:00:00 19.7 3 Sudoeste 13 Nordeste 0 -- -- 54
2020-06-20 03:00:00 20.2 8 Norte 14 Norte 0 -- -- 53
2020-06-20 02:00:00 21.3 4 Norte 6 Norte 0 -- -- 50
2020-06-20 01:00:00 22 2 Oeste 6 Sudoeste 0 -- -- 49
2020-06-20 00:00:00 22.9 4 Sudoeste 10 Sudoeste 0 -- -- 46
2020-06-19 23:00:00 24.2 6 Sudoeste 13 Oeste 0 -- -- 43
2020-06-19 22:00:00 25.6 10 Oeste 24 Oeste 0 -- -- 40
2020-06-19 21:00:00 27.8 18 Oeste 29 Oeste 0 -- -- 37
2020-06-19 20:00:00 29 21 Oeste 32 Oeste 0 -- -- 36
2020-06-19 19:00:00 30 18 Oeste 27 Oeste 0 -- -- 35
2020-06-19 18:00:00 30.2 10 Noroeste 30 Oeste 0 -- -- 34
2020-06-19 17:00:00 29.9 14 Oeste 27 Oeste 0 -- -- 33
2020-06-19 16:00:00 29.4 9 Sudoeste 30 Oeste 0 -- -- 34
2020-06-19 15:00:00 28.3 14 Oeste 25 Oeste 0 -- -- 37
2020-06-19 14:00:00 27 9 Norte 25 Noroeste 0 -- -- 41
2020-06-19 13:00:00 25.7 5 Norte 30 Oeste 0 -- -- 46
2020-06-19 12:00:00 24.3 6 Norte 17 Noroeste 0 -- -- 49
2020-06-19 11:00:00 22.8 6 Noroeste 19 Noroeste 0 -- -- 53
2020-06-19 10:00:00 21.4 7 Oeste 15 Oeste 0 -- -- 56
2020-06-19 09:00:00 19 5 Noroeste 9 Oeste 0 -- -- 57
2020-06-19 08:00:00 17.9 3 Noroeste 8 Sur 0 -- -- 54
2020-06-19 07:00:00 18.3 6 Sudeste 10 Sudeste 0 -- -- 52
2020-06-19 06:00:00 17.8 5 Sudeste 9 Sudeste 0 -- -- 51
2020-06-19 05:00:00 17.8 4 Nordeste 14 Noroeste 0 -- -- 51
2020-06-19 04:00:00 19.5 8 Sudoeste 18 Sur 0 -- -- 46
2020-06-19 03:00:00 19 8 Sur 13 Sur 0 -- -- 49
2020-06-19 02:00:00 19 3 Oeste 10 Sudoeste 0 -- -- 52
2020-06-19 01:00:00 19.4 5 Oeste 10 Oeste 0 -- -- 52
2020-06-19 00:00:00 20.4 6 Oeste 15 Sudoeste 0 -- -- 51
2020-06-18 23:00:00 22.2 12 Sudoeste 20 Sudoeste 0 -- -- 46
2020-06-18 22:00:00 24.4 14 Oeste 33 Sudoeste 0 -- -- 36
2020-06-18 21:00:00 27 19 Oeste 40 Oeste 0 -- -- 28
2020-06-18 20:00:00 28.4 27 Oeste 40 Oeste 0 -- -- 25
2020-06-18 19:00:00 29.3 27 Oeste 44 Oeste 0 -- -- 25
2020-06-18 18:00:00 30.2 26 Oeste 44 Oeste 0 -- -- 29
2020-06-18 17:00:00 30.3 29 Oeste 44 Oeste 0 -- -- 28
2020-06-18 16:00:00 30 23 Oeste 41 Oeste 0 -- -- 30
2020-06-18 15:00:00 29.1 14 Oeste 35 Oeste 0 -- -- 30
2020-06-18 14:00:00 28.5 20 Oeste 32 Noroeste 0 -- -- 32
2020-06-18 13:00:00 26.9 10 Oeste 23 Oeste 0 -- -- 34
2020-06-18 12:00:00 25.3 9 Oeste 15 Sudoeste 0 -- -- 37
2020-06-18 11:00:00 23 4 Norte 12 Norte 0 -- -- 48
2020-06-18 10:00:00 21.4 4 Noroeste 8 Noroeste 0 -- -- 53
2020-06-18 09:00:00 20.4 3 Oeste 8 Noroeste 0 -- -- 55
2020-06-18 08:00:00 18.5 5 Norte 14 Noroeste 0 -- -- 60
2020-06-18 07:00:00 18.7 4 Sudeste 6 Sudeste 0 -- -- 59
2020-06-18 06:00:00 18.1 3 Sudeste 9 Norte 0 -- -- 60
2020-06-18 05:00:00 19.4 2 Norte 9 Noroeste 0 -- -- 54
2020-06-18 04:00:00 20.4 4 Sur 10 Sur 0 -- -- 51
2020-06-18 03:00:00 20.4 5 Sur 13 Sur 0 -- -- 54
2020-06-18 02:00:00 20.4 7 Sur 16 Sudoeste 0 -- -- 56
2020-06-18 01:00:00 21.1 8 Sudoeste 17 Sudoeste 0 -- -- 53
2020-06-18 00:00:00 22.3 9 Sudoeste 15 Sudoeste 0 -- -- 50
2020-06-17 23:00:00 23.4 6 Sudoeste 29 Oeste 0 -- -- 48
2020-06-17 22:00:00 24.9 15 Oeste 30 Oeste 0 -- -- 45
2020-06-17 21:00:00 27.2 21 Oeste 32 Oeste 0 -- -- 39
2020-06-17 20:00:00 28.9 18 Oeste 36 Oeste 0 -- -- 33
2020-06-17 19:00:00 29.4 18 Oeste 35 Oeste 0 -- -- 32
2020-06-17 18:00:00 29.2 19 Oeste 39 Oeste 0 -- -- 31
2020-06-17 17:00:00 29.1 19 Oeste 37 Oeste 0 -- -- 33
2020-06-17 16:00:00 28.6 15 Oeste 36 Oeste 0 -- -- 34
2020-06-17 15:00:00 28.1 16 Oeste 36 Oeste 0 -- -- 36
2020-06-17 14:00:00 26.9 17 Oeste 31 Oeste 0 -- -- 38
2020-06-17 13:00:00 25.5 16 Oeste 26 Oeste 0 -- -- 42
2020-06-17 12:00:00 23.6 13 Noroeste 23 Oeste 0 -- -- 51
2020-06-17 11:00:00 22.5 9 Oeste 21 Oeste 0 -- -- 55
2020-06-17 10:00:00 21.2 11 Oeste 17 Oeste 0 -- -- 60
2020-06-17 09:00:00 20.2 9 Oeste 18 Oeste 0 -- -- 65
2020-06-17 08:00:00 18.4 4 Sudoeste 12 Sudoeste 0 -- -- 73
2020-06-17 07:00:00 18.4 5 Sur 9 Sur 0 -- -- 73
2020-06-17 06:00:00 18.8 4 Sur 10 Sur 0 -- -- 72
2020-06-17 05:00:00 19.2 4 Sudoeste 10 Sudoeste 0 -- -- 71
2020-06-17 04:00:00 19.6 4 Sudoeste 10 Oeste 0 -- -- 70
2020-06-17 03:00:00 20.2 5 Sudoeste 13 Oeste 0 -- -- 67
2020-06-17 02:00:00 20.7 8 Sudoeste 15 Sudoeste 0 -- -- 65
2020-06-17 01:00:00 21 9 Sudoeste 24 Sudoeste 0 -- -- 65
2020-06-17 00:00:00 21.3 11 Sudoeste 23 Sudoeste 0 -- -- 66
2020-06-16 23:00:00 21.8 15 Sudoeste 27 Sudoeste 0 -- -- 63
2020-06-16 22:00:00 22.9 20 Oeste 36 Oeste 0 -- -- 60
2020-06-16 21:00:00 25 23 Oeste 45 Oeste 0 -- -- 54
2020-06-16 20:00:00 26.8 32 Oeste 48 Oeste 0 -- -- 47
2020-06-16 19:00:00 27.8 28 Oeste 53 Oeste 0 -- -- 42
2020-06-16 18:00:00 28.3 31 Oeste 49 Oeste 0 -- -- 39
2020-06-16 17:00:00 28.7 27 Oeste 46 Oeste 0 -- -- 36
2020-06-16 16:00:00 28.6 24 Oeste 41 Oeste 0 -- -- 31
2020-06-16 15:00:00 27.8 23 Oeste 49 Sudoeste 0 -- -- 31
2020-06-16 14:00:00 26.8 25 Oeste 42 Oeste 0 -- -- 31
2020-06-16 13:00:00 25.2 19 Noroeste 32 Noroeste 0 -- -- 34
2020-06-16 12:00:00 23.6 10 Noroeste 21 Oeste 0 -- -- 44
2020-06-16 11:00:00 22.6 7 Oeste 17 Oeste 0 -- -- 49
2020-06-16 10:00:00 20.9 6 Noroeste 16 Oeste 0 -- -- 53
2020-06-16 09:00:00 19.9 7 Oeste 13 Oeste 0 -- -- 57
2020-06-16 08:00:00 18.2 4 Sudoeste 7 Sudoeste 0 -- -- 60
2020-06-16 07:00:00 18.3 4 Sudoeste 8 Sur 0 -- -- 59
2020-06-16 06:00:00 18.6 3 Sudoeste 8 Sudoeste 0 -- -- 57
2020-06-16 05:00:00 18.7 4 Sudoeste 8 Sudoeste 0 -- -- 54
2020-06-16 04:00:00 18.4 3 Sudoeste 7 Oeste 0 -- -- 54
2020-06-16 03:00:00 19.1 5 Sudoeste 16 Sur 0 -- -- 52
2020-06-16 02:00:00 18.8 8 Sur 13 Sudoeste 0 -- -- 55
2020-06-16 01:00:00 18.7 6 Sudoeste 14 Sudoeste 0 -- -- 55
2020-06-16 00:00:00 19.4 6 Oeste 22 Oeste 0 -- -- 54
2020-06-15 23:00:00 20.8 14 Oeste 24 Oeste 0 -- -- 51
2020-06-15 22:00:00 23 19 Oeste 33 Oeste 0 -- -- 44
2020-06-15 21:00:00 26.5 19 Oeste 30 Oeste 0 -- -- 34
2020-06-15 20:00:00 27.6 23 Oeste 43 Oeste 0 -- -- 34
2020-06-15 19:00:00 28.4 16 Oeste 32 Oeste 0 -- -- 34
2020-06-15 18:00:00 28.7 21 Oeste 31 Oeste 0 -- -- 31
2020-06-15 17:00:00 28.6 20 Oeste 34 Oeste 0 -- -- 31
2020-06-15 16:00:00 28.5 15 Oeste 32 Oeste 0 -- -- 31
2020-06-15 15:00:00 27.4 13 Oeste 29 Noroeste 0 -- -- 33
2020-06-15 14:00:00 26 12 Noroeste 24 Oeste 0 -- -- 35
2020-06-15 13:00:00 24.5 9 Noroeste 19 Noroeste 0 -- -- 40
2020-06-15 12:00:00 23 4 Nordeste 15 Noroeste 0 -- -- 46
2020-06-15 11:00:00 21.2 2 Oeste 11 Nordeste 0 -- -- 52
2020-06-15 10:00:00 19.9 3 Norte 10 Nordeste 0 -- -- 57
2020-06-15 09:00:00 18.8 2 Este 6 Sudeste 0 -- -- 60
2020-06-15 08:00:00 16.4 0 Calma 3 Noroeste 0 -- -- 65
2020-06-15 07:00:00 15.9 0 Calma 4 Nordeste 0 -- -- 65
2020-06-15 06:00:00 16.3 0 Calma 4 Oeste 0 -- -- 63
2020-06-15 05:00:00 16.5 4 Oeste 14 Noroeste 0 -- -- 62
2020-06-15 04:00:00 18 6 Sur 15 Sur 0 -- -- 55
2020-06-15 03:00:00 17.6 7 Sur 17 Sudoeste 0 -- -- 59
2020-06-15 02:00:00 17.4 8 Sur 14 Sudoeste 0 -- -- 62
2020-06-15 01:00:00 17.9 8 Sudoeste 20 Oeste 0 -- -- 60
2020-06-15 00:00:00 18.5 12 Oeste 17 Oeste 0 -- -- 57
2020-06-14 23:00:00 19.8 10 Oeste 23 Sudoeste 0 -- -- 51
2020-06-14 22:00:00 21.3 14 Oeste 36 Oeste 0 -- -- 46
2020-06-14 21:00:00 23.8 21 Oeste 33 Oeste 0 -- -- 39
2020-06-14 20:00:00 25.4 24 Oeste 37 Oeste 0 -- -- 37
2020-06-14 19:00:00 26.3 24 Oeste 42 Oeste 0 -- -- 36
2020-06-14 18:00:00 27.5 23 Oeste 41 Oeste 0 -- -- 33
2020-06-14 17:00:00 27.6 22 Oeste 39 Oeste 0 -- -- 29
2020-06-14 16:00:00 27.1 20 Oeste 37 Oeste 0 -- -- 31
2020-06-14 15:00:00 26.2 12 Noroeste 31 Oeste 0 -- -- 31
2020-06-14 14:00:00 25.6 10 Oeste 27 Oeste 0 -- -- 34
2020-06-14 13:00:00 24.1 9 Oeste 24 Oeste 0 -- -- 40
2020-06-14 12:00:00 22.7 10 Oeste 22 Oeste 0 -- -- 44
2020-06-14 11:00:00 20.9 9 Noroeste 19 Oeste 0 -- -- 52
2020-06-14 10:00:00 19.4 7 Noroeste 18 Oeste 0 -- -- 58
2020-06-14 09:00:00 18.1 5 Sudoeste 8 Sudoeste 0 -- -- 56
2020-06-14 08:00:00 16.3 0 Calma 3 Sudoeste 0 -- -- 61
2020-06-14 07:00:00 15.9 0 Calma 8 Noroeste 0 -- -- 59
2020-06-14 06:00:00 17.2 4 Sur 10 Sur 0 -- -- 54
2020-06-14 05:00:00 17.2 7 Sur 14 Sur 0 -- -- 56
2020-06-14 04:00:00 17 8 Sudoeste 17 Sudoeste 0 -- -- 57
2020-06-14 03:00:00 17.2 6 Sur 17 Sudoeste 0 -- -- 57
2020-06-14 02:00:00 17.5 6 Sudoeste 18 Sudoeste 0 -- -- 60
2020-06-14 01:00:00 18.1 9 Oeste 19 Oeste 0 -- -- 56
2020-06-14 00:00:00 18.8 11 Oeste 17 Oeste 0 -- -- 52
2020-06-13 23:00:00 19.9 9 Sudoeste 25 Oeste 0 -- -- 49
2020-06-13 22:00:00 21.6 17 Oeste 28 Oeste 0 -- -- 43
2020-06-13 21:00:00 23.8 9 Oeste 24 Noroeste 0 -- -- 34
2020-06-13 20:00:00 25 14 Noroeste 26 Oeste 0 -- -- 30
2020-06-13 19:00:00 25.7 24 Oeste 35 Oeste 0 -- -- 28
2020-06-13 18:00:00 25.7 13 Noroeste 33 Oeste 0 -- -- 29
2020-06-13 17:00:00 25.6 20 Oeste 32 Oeste 0 -- -- 30
2020-06-13 16:00:00 24.7 16 Oeste 31 Oeste 0 -- -- 33
2020-06-13 15:00:00 23.8 13 Noroeste 33 Oeste 0 -- -- 35
2020-06-13 14:00:00 22.9 12 Sudoeste 22 Oeste 0 -- -- 39
2020-06-13 13:00:00 21.6 8 Oeste 24 Oeste 0 -- -- 45
2020-06-13 12:00:00 20.4 8 Noroeste 19 Sudoeste 0 -- -- 49
2020-06-13 11:00:00 18.7 3 Oeste 12 Oeste 0 -- -- 58
2020-06-13 10:00:00 17 4 Oeste 14 Oeste 0 -- -- 64
2020-06-13 09:00:00 16.1 6 Oeste 12 Sudoeste 0 -- -- 68
2020-06-13 08:00:00 14.4 5 Sudoeste 10 Sudoeste 0 -- -- 74
2020-06-13 07:00:00 14.2 5 Sudoeste 12 Sur 0 -- -- 75
2020-06-13 06:00:00 14.4 6 Sur 13 Sur 0 -- -- 75
2020-06-13 05:00:00 14.9 4 Sur 13 Sudoeste 0 -- -- 75
2020-06-13 04:00:00 15.4 5 Sur 15 Sur 0 -- -- 74
2020-06-13 03:00:00 15.7 9 Sudoeste 26 Sudoeste 0 -- -- 73
2020-06-13 02:00:00 15.9 13 Sudoeste 28 Sudoeste 0 -- -- 71
2020-06-13 01:00:00 16.1 14 Sudoeste 37 Sudoeste 0 -- -- 69
2020-06-13 00:00:00 16.6 19 Sudoeste 32 Oeste 0 -- -- 66
2020-06-12 23:00:00 17.3 21 Oeste 42 Oeste 0 -- -- 61
2020-06-12 22:00:00 18.3 24 Oeste 44 Oeste 0 -- -- 55
2020-06-12 21:00:00 20.3 25 Oeste 44 Oeste 0 -- -- 46
2020-06-12 20:00:00 21.7 24 Oeste 37 Oeste 0 -- -- 42
2020-06-12 19:00:00 22.3 22 Oeste 41 Oeste 0 -- -- 41
2020-06-12 18:00:00 22.4 25 Oeste 40 Oeste 0 -- -- 39
2020-06-12 17:00:00 21.2 27 Oeste 41 Oeste 0 -- -- 45
2020-06-12 16:00:00 22.3 26 Oeste 40 Oeste 0 -- -- 43
2020-06-12 15:00:00 20.9 20 Oeste 36 Oeste 0 -- -- 47
2020-06-12 14:00:00 20.8 16 Oeste 32 Oeste 0 -- -- 45
2020-06-12 13:00:00 19.4 17 Oeste 31 Oeste 0 -- -- 50
2020-06-12 12:00:00 17.9 18 Oeste 28 Oeste 0 -- -- 54
2020-06-12 11:00:00 16.2 17 Oeste 25 Oeste 0 -- -- 65
2020-06-12 10:00:00 16.1 17 Oeste 27 Oeste 0 -- -- 73
2020-06-12 09:00:00 15.7 17 Oeste 24 Oeste 0 -- -- 77
2020-06-12 08:00:00 15.3 16 Oeste 29 Oeste 0 -- -- 79
2020-06-12 07:00:00 15.1 21 Oeste 30 Oeste 0 -- -- 81
2020-06-12 06:00:00 15 15 Sudoeste 34 Oeste 0 -- -- 84
2020-06-12 05:00:00 15.5 21 Oeste 40 Oeste 0 -- -- 83
2020-06-12 04:00:00 16.4 26 Oeste 41 Oeste 0 -- -- 83
2020-06-12 03:00:00 16.8 21 Oeste 35 Oeste 0.6 -- -- 87
2020-06-12 02:00:00 17 24 Oeste 49 Oeste 0.4 -- -- 86
2020-06-12 01:00:00 17.6 23 Oeste 38 Oeste 0 -- -- 82
2020-06-12 00:00:00 18.4 26 Oeste 42 Sudoeste 0 -- -- 73